createdAt,value
2022-08-28T00:00:41.410Z,95992
2022-08-28T00:01:41.413Z,95993
2022-08-28T00:02:41.469Z,95991
2022-08-28T00:04:41.469Z,95989
2022-08-28T00:06:41.425Z,95992
2022-08-28T00:07:45.515Z,95998
2022-08-28T00:09:41.429Z,95993
2022-08-28T00:10:41.461Z,95994
2022-08-28T00:11:41.445Z,95994
2022-08-28T00:12:41.436Z,95997
2022-08-28T00:13:41.442Z,95996
2022-08-28T00:14:41.454Z,95997
2022-08-28T00:15:41.504Z,95994
2022-08-28T00:16:41.445Z,95993
2022-08-28T00:17:41.451Z,95995
2022-08-28T00:18:41.477Z,95996
2022-08-28T00:19:41.448Z,95996
2022-08-28T00:20:41.469Z,95998
2022-08-28T00:21:41.488Z,95999
2022-08-28T00:22:41.470Z,95999
2022-08-28T00:23:42.896Z,96001
2022-08-28T00:24:41.468Z,96001
2022-08-28T00:26:41.511Z,96000
2022-08-28T00:27:41.482Z,96000
2022-08-28T00:28:41.484Z,95999
2022-08-28T00:30:41.483Z,96001
2022-08-28T00:31:41.577Z,95998
2022-08-28T00:32:41.496Z,95998
2022-08-28T00:34:41.499Z,95996
2022-08-28T00:36:41.504Z,95994
2022-08-28T00:38:41.509Z,95990
2022-08-28T00:41:41.511Z,95991
2022-08-28T00:42:41.526Z,95991
2022-08-28T00:43:41.515Z,95990
2022-08-28T00:44:41.512Z,95989
2022-08-28T00:46:41.612Z,95991
2022-08-28T00:47:41.533Z,95991
2022-08-28T00:48:41.546Z,95995
2022-08-28T00:49:41.530Z,95994
2022-08-28T00:50:41.540Z,95990
2022-08-28T00:51:41.529Z,95991
2022-08-28T00:54:41.533Z,95990
2022-08-28T00:55:41.552Z,95993
2022-08-28T00:56:41.553Z,95993
2022-08-28T00:57:41.549Z,95992
2022-08-28T00:58:41.565Z,95990
2022-08-28T00:59:41.559Z,95988
2022-08-28T01:00:41.565Z,95993
2022-08-28T01:01:41.683Z,95992
2022-08-28T01:02:41.633Z,95992
2022-08-28T01:03:41.558Z,95991
2022-08-28T01:04:41.581Z,95992
2022-08-28T01:05:41.584Z,95992
2022-08-28T01:06:41.590Z,95991
2022-08-28T01:07:41.580Z,95991
2022-08-28T01:08:41.586Z,95993
2022-08-28T01:09:41.577Z,95993
2022-08-28T01:10:41.705Z,95990
2022-08-28T01:11:41.604Z,95993
2022-08-28T01:12:41.611Z,95993
2022-08-28T01:13:41.607Z,95989
2022-08-28T01:14:41.584Z,95982
2022-08-28T01:15:41.644Z,95983
2022-08-28T01:17:43.166Z,95982
2022-08-28T01:18:41.609Z,95984
2022-08-28T01:20:41.616Z,95983
2022-08-28T01:21:41.611Z,95982
2022-08-28T01:24:41.625Z,95978
2022-08-28T01:25:41.661Z,95978
2022-08-28T01:27:41.641Z,95978
2022-08-28T01:30:41.644Z,95974
2022-08-28T01:31:41.714Z,95977
2022-08-28T01:34:41.653Z,95977
2022-08-28T01:35:41.666Z,95976
2022-08-28T01:36:41.661Z,95980
2022-08-28T01:37:41.665Z,95978
2022-08-28T01:38:41.662Z,95982
2022-08-28T01:39:41.683Z,95982
2022-08-28T01:40:41.796Z,95981
2022-08-28T01:41:41.666Z,95981
2022-08-28T01:42:41.679Z,95978
2022-08-28T01:43:41.689Z,95977
2022-08-28T01:44:41.674Z,95978
2022-08-28T01:45:41.676Z,95977
2022-08-28T01:46:41.725Z,95975
2022-08-28T01:47:41.689Z,95978
2022-08-28T01:48:41.684Z,95975
2022-08-28T01:49:41.697Z,95976
2022-08-28T01:51:41.705Z,95977
2022-08-28T01:53:41.705Z,95973
2022-08-28T01:54:41.700Z,95977
2022-08-28T01:55:41.696Z,95976
2022-08-28T01:56:41.709Z,95975
2022-08-28T01:57:41.719Z,95974
2022-08-28T01:58:41.718Z,95975
2022-08-28T01:59:41.706Z,95975
2022-08-28T02:00:41.737Z,95970
2022-08-28T02:01:41.774Z,95970
2022-08-28T02:02:41.725Z,95969
2022-08-28T02:03:41.731Z,95968
2022-08-28T02:04:44.148Z,95968
2022-08-28T02:05:41.747Z,95968
2022-08-28T02:06:41.743Z,95968
2022-08-28T02:07:41.742Z,95967
2022-08-28T02:08:41.739Z,95965
2022-08-28T02:09:41.734Z,95975
2022-08-28T02:10:41.731Z,95972
2022-08-28T02:11:41.736Z,95977
2022-08-28T02:12:41.737Z,95976
2022-08-28T02:13:41.765Z,95972
2022-08-28T02:14:41.760Z,95974
2022-08-28T02:15:41.788Z,95970
2022-08-28T02:16:41.797Z,95970
2022-08-28T02:17:41.760Z,95971
2022-08-28T02:18:41.778Z,95971
2022-08-28T02:19:41.781Z,95971
2022-08-28T02:20:41.765Z,95971
2022-08-28T02:21:41.865Z,95975
2022-08-28T02:22:41.771Z,95975
2022-08-28T02:24:41.789Z,95973
2022-08-28T02:27:41.782Z,95973
2022-08-28T02:29:41.800Z,95975
2022-08-28T02:30:41.800Z,95978
2022-08-28T02:31:41.815Z,95980
2022-08-28T02:32:41.799Z,95982
2022-08-28T02:34:41.800Z,95980
2022-08-28T02:35:41.822Z,95981
2022-08-28T02:37:41.804Z,95980
2022-08-28T02:38:41.835Z,95980
2022-08-28T02:39:41.806Z,95980
2022-08-28T02:40:41.821Z,95979
2022-08-28T02:41:41.829Z,95979
2022-08-28T02:42:41.837Z,95979
2022-08-28T02:43:41.852Z,95978
2022-08-28T02:44:41.828Z,95980
2022-08-28T02:51:41.859Z,95988
2022-08-28T02:52:41.868Z,95982
2022-08-28T02:55:41.875Z,95979
2022-08-28T03:02:41.929Z,95978
2022-08-28T03:03:41.889Z,95981
2022-08-28T03:05:41.887Z,95975
2022-08-28T03:06:41.879Z,95977
2022-08-28T03:10:41.896Z,95975
2022-08-28T03:11:41.893Z,95974
2022-08-28T03:12:41.894Z,95974
2022-08-28T03:13:41.926Z,95975
2022-08-28T03:14:41.914Z,95972
2022-08-28T03:16:42.011Z,95972
2022-08-28T03:17:41.975Z,95972
2022-08-28T03:18:41.902Z,95969
2022-08-28T03:20:41.929Z,95968
2022-08-28T03:22:41.946Z,95974
2022-08-28T03:24:41.927Z,95975
2022-08-28T03:27:41.963Z,95982
2022-08-28T03:28:41.951Z,95979
2022-08-28T03:29:41.947Z,95979
2022-08-28T03:30:41.996Z,95978
2022-08-28T03:31:41.963Z,95982
2022-08-28T03:32:41.948Z,95977
2022-08-28T03:33:42.521Z,95981
2022-08-28T03:34:41.960Z,95975
2022-08-28T03:35:41.937Z,95979
2022-08-28T03:36:41.947Z,95977
2022-08-28T03:37:41.956Z,95977
2022-08-28T03:38:41.965Z,95976
2022-08-28T03:40:41.979Z,95978
2022-08-28T03:41:41.988Z,95979
2022-08-28T03:43:41.998Z,95980
2022-08-28T03:44:41.996Z,95980
2022-08-28T03:46:41.992Z,95981
2022-08-28T03:47:41.990Z,95984
2022-08-28T03:48:42.231Z,95983
2022-08-28T03:50:42.000Z,95985
2022-08-28T03:51:41.998Z,95987
2022-08-28T03:52:41.994Z,95986
2022-08-28T03:53:42.016Z,95989
2022-08-28T03:54:42.002Z,95990
2022-08-28T03:55:42.008Z,95987
2022-08-28T03:56:42.011Z,95989
2022-08-28T03:57:42.020Z,95989
2022-08-28T03:58:42.007Z,95990
2022-08-28T04:00:42.035Z,95984
2022-08-28T04:01:42.090Z,95986
2022-08-28T04:03:42.087Z,95986
2022-08-28T04:04:42.049Z,95983
2022-08-28T04:05:42.042Z,95983
2022-08-28T04:07:42.035Z,95982
2022-08-28T04:08:42.060Z,95982
2022-08-28T04:09:42.042Z,95981
2022-08-28T04:11:42.059Z,95984
2022-08-28T04:12:42.066Z,95982
2022-08-28T04:13:42.171Z,95982
2022-08-28T04:14:42.064Z,95985
2022-08-28T04:15:42.070Z,95982
2022-08-28T04:16:42.157Z,95982
2022-08-28T04:17:42.059Z,95981
2022-08-28T04:18:42.084Z,95981
2022-08-28T04:19:42.062Z,95981
2022-08-28T04:21:42.078Z,95980
2022-08-28T04:23:42.074Z,95980
2022-08-28T04:24:42.085Z,95981
2022-08-28T04:25:42.100Z,95984
2022-08-28T04:26:42.096Z,95986
2022-08-28T04:27:42.100Z,95982
2022-08-28T04:28:42.088Z,95982
2022-08-28T04:30:42.084Z,95982
2022-08-28T04:31:42.175Z,95983
2022-08-28T04:32:42.123Z,95981
2022-08-28T04:35:42.113Z,95981
2022-08-28T04:36:42.122Z,95986
2022-08-28T04:37:42.126Z,95988
2022-08-28T04:39:42.114Z,95987
2022-08-28T04:40:42.123Z,95988
2022-08-28T04:41:42.126Z,95990
2022-08-28T04:43:42.140Z,95991
2022-08-28T04:44:42.147Z,95992
2022-08-28T04:45:42.263Z,95996
2022-08-28T04:46:42.153Z,95996
2022-08-28T04:47:42.142Z,95994
2022-08-28T04:49:42.159Z,95997
2022-08-28T04:50:42.156Z,95996
2022-08-28T04:51:42.382Z,95994
2022-08-28T04:56:42.189Z,95997
2022-08-28T04:57:42.182Z,95998
2022-08-28T04:58:42.183Z,95998
2022-08-28T04:59:42.166Z,96000
2022-08-28T05:00:42.228Z,95999
2022-08-28T05:01:42.172Z,96001
2022-08-28T05:02:42.244Z,96001
2022-08-28T05:03:42.183Z,95999
2022-08-28T05:04:42.177Z,96002
2022-08-28T05:05:42.183Z,96001
2022-08-28T05:06:42.215Z,96002
2022-08-28T05:07:42.177Z,96002
2022-08-28T05:08:42.201Z,96004
2022-08-28T05:09:42.200Z,96005
2022-08-28T05:10:42.212Z,96008
2022-08-28T05:12:42.215Z,96009
2022-08-28T05:14:42.219Z,96014
2022-08-28T05:15:42.206Z,96014
2022-08-28T05:16:42.247Z,96018
2022-08-28T05:17:42.226Z,96018
2022-08-28T05:20:42.233Z,96017
2022-08-28T05:22:42.235Z,96023
2022-08-28T05:23:42.256Z,96026
2022-08-28T05:24:42.234Z,96026
2022-08-28T05:25:42.228Z,96027
2022-08-28T05:27:42.240Z,96029
2022-08-28T05:28:42.258Z,96036
2022-08-28T05:29:42.271Z,96037
2022-08-28T05:30:42.255Z,96037
2022-08-28T05:31:42.347Z,96039
2022-08-28T05:33:42.274Z,96038
2022-08-28T05:34:42.259Z,96038
2022-08-28T05:35:42.276Z,96040
2022-08-28T05:37:42.298Z,96043
2022-08-28T05:39:42.262Z,96046
2022-08-28T05:40:42.276Z,96045
2022-08-28T05:41:42.275Z,96045
2022-08-28T05:42:42.280Z,96047
2022-08-28T05:43:42.290Z,96052
2022-08-28T05:44:42.302Z,96051
2022-08-28T05:46:42.316Z,96053
2022-08-28T05:47:42.288Z,96054
2022-08-28T05:48:42.303Z,96053
2022-08-28T05:49:42.302Z,96053
2022-08-28T05:51:42.306Z,96052
2022-08-28T05:53:42.312Z,96052
2022-08-28T05:54:42.303Z,96052
2022-08-28T05:55:42.324Z,96050
2022-08-28T05:56:42.329Z,96053
2022-08-28T05:57:42.337Z,96053
2022-08-28T05:58:42.332Z,96054
2022-08-28T06:01:42.395Z,96060
2022-08-28T06:02:42.350Z,96062
2022-08-28T06:03:42.380Z,96065
2022-08-28T06:04:42.345Z,96063
2022-08-28T06:05:42.353Z,96063
2022-08-28T06:06:42.356Z,96064
2022-08-28T06:09:42.361Z,96066
2022-08-28T06:10:42.363Z,96064
2022-08-28T06:12:42.347Z,96065
2022-08-28T06:14:42.393Z,96066
2022-08-28T06:15:42.363Z,96068
2022-08-28T06:17:42.389Z,96070
2022-08-28T06:18:42.384Z,96070
2022-08-28T06:19:42.369Z,96075
2022-08-28T06:20:42.374Z,96071
2022-08-28T06:22:42.382Z,96070
2022-08-28T06:23:42.380Z,96067
2022-08-28T06:24:42.398Z,96069
2022-08-28T06:25:42.389Z,96069
2022-08-28T06:27:42.403Z,96071
2022-08-28T06:28:42.410Z,96071
2022-08-28T06:29:42.398Z,96069
2022-08-28T06:30:57.298Z,96069
2022-08-28T06:31:42.459Z,96069
2022-08-28T06:32:42.409Z,96071
2022-08-28T06:33:42.427Z,96070
2022-08-28T06:34:42.423Z,96070
2022-08-28T06:35:42.461Z,96072
2022-08-28T06:36:42.438Z,96074
2022-08-28T06:37:42.418Z,96074
2022-08-28T06:38:42.438Z,96077
2022-08-28T06:39:42.430Z,96081
2022-08-28T06:41:42.446Z,96081
2022-08-28T06:42:42.459Z,96084
2022-08-28T06:43:42.446Z,96083
2022-08-28T06:44:42.448Z,96083
2022-08-28T06:45:42.536Z,96082
2022-08-28T06:46:42.446Z,96082
2022-08-28T06:47:42.451Z,96084
2022-08-28T06:48:42.451Z,96084
2022-08-28T06:49:42.452Z,96084
2022-08-28T06:50:42.461Z,96086
2022-08-28T06:51:42.452Z,96087
2022-08-28T06:52:42.446Z,96086
2022-08-28T06:53:42.467Z,96087
2022-08-28T06:54:55.392Z,96090
2022-08-28T06:57:42.488Z,96091
2022-08-28T06:58:42.469Z,96094
2022-08-28T06:59:42.487Z,96095
2022-08-28T07:00:42.470Z,96095
2022-08-28T07:01:42.547Z,96096
2022-08-28T07:03:44.152Z,96100
2022-08-28T07:04:42.484Z,96097
2022-08-28T07:05:42.490Z,96099
2022-08-28T07:06:42.501Z,96100
2022-08-28T07:07:42.502Z,96100
2022-08-28T07:08:42.520Z,96101
2022-08-28T07:09:42.497Z,96101
2022-08-28T07:10:42.515Z,96100
2022-08-28T07:13:42.539Z,96105
2022-08-28T07:15:42.614Z,96105
2022-08-28T07:16:42.534Z,96104
2022-08-28T07:17:42.529Z,96104
2022-08-28T07:18:42.543Z,96104
2022-08-28T07:19:42.547Z,96105
2022-08-28T07:21:42.563Z,96104
2022-08-28T07:22:42.561Z,96107
2022-08-28T07:23:42.582Z,96111
2022-08-28T07:24:42.546Z,96111
2022-08-28T07:26:42.555Z,96111
2022-08-28T07:27:42.562Z,96110
2022-08-28T07:28:42.556Z,96110
2022-08-28T07:29:42.559Z,96108
2022-08-28T07:30:42.660Z,96110
2022-08-28T07:32:42.558Z,96106
2022-08-28T07:33:42.588Z,96111
2022-08-28T07:34:42.574Z,96110
2022-08-28T07:35:42.575Z,96116
2022-08-28T07:36:42.599Z,96114
2022-08-28T07:37:42.587Z,96113
2022-08-28T07:38:42.586Z,96117
2022-08-28T07:39:42.592Z,96112
2022-08-28T07:40:42.590Z,96117
2022-08-28T07:41:42.946Z,96117
2022-08-28T07:42:42.588Z,96118
2022-08-28T07:43:42.593Z,96119
2022-08-28T07:44:42.589Z,96118
2022-08-28T07:45:42.701Z,96119
2022-08-28T07:46:42.591Z,96123
2022-08-28T07:47:42.591Z,96122
2022-08-28T07:48:42.627Z,96124
2022-08-28T07:49:42.606Z,96122
2022-08-28T07:50:42.604Z,96122
2022-08-28T07:51:42.605Z,96122
2022-08-28T07:52:42.622Z,96124
2022-08-28T07:54:42.681Z,96124
2022-08-28T07:55:42.681Z,96125
2022-08-28T07:56:42.624Z,96125
2022-08-28T07:59:42.641Z,96130
2022-08-28T08:00:42.691Z,96128
2022-08-28T08:01:42.685Z,96128
2022-08-28T08:02:42.655Z,96130
2022-08-28T08:03:42.729Z,96130
2022-08-28T08:04:42.643Z,96129
2022-08-28T08:05:42.643Z,96129
2022-08-28T08:06:42.726Z,96130
2022-08-28T08:07:43.770Z,96130
2022-08-28T08:08:42.685Z,96129
2022-08-28T08:09:42.661Z,96133
2022-08-28T08:10:42.673Z,96134
2022-08-28T08:11:42.708Z,96135
2022-08-28T08:12:42.671Z,96137
2022-08-28T08:13:42.693Z,96137
2022-08-28T08:14:42.690Z,96139
2022-08-28T08:15:42.756Z,96140
2022-08-28T08:16:42.698Z,96139
2022-08-28T08:17:42.700Z,96139
2022-08-28T08:18:42.688Z,96140
2022-08-28T08:19:42.701Z,96140
2022-08-28T08:20:42.702Z,96143
2022-08-28T08:21:42.712Z,96144
2022-08-28T08:22:42.783Z,96143
2022-08-28T08:23:42.726Z,96146
2022-08-28T08:24:42.730Z,96145
2022-08-28T08:25:42.712Z,96145
2022-08-28T08:26:42.705Z,96145
2022-08-28T08:27:43.123Z,96145
2022-08-28T08:28:42.715Z,96145
2022-08-28T08:29:42.722Z,96147
2022-08-28T08:30:42.742Z,96148
2022-08-28T08:31:43.652Z,96148
2022-08-28T08:32:42.730Z,96146
2022-08-28T08:33:42.722Z,96146
2022-08-28T08:34:42.725Z,96150
2022-08-28T08:37:42.737Z,96155
2022-08-28T08:38:42.732Z,96157
2022-08-28T08:39:42.763Z,96157
2022-08-28T08:40:42.865Z,96158
2022-08-28T08:41:42.745Z,96158
2022-08-28T08:42:42.743Z,96158
2022-08-28T08:43:42.762Z,96156
2022-08-28T08:44:42.766Z,96155
2022-08-28T08:45:42.758Z,96155
2022-08-28T08:46:42.802Z,96150
2022-08-28T08:47:42.761Z,96153
2022-08-28T08:48:42.774Z,96153
2022-08-28T08:49:42.758Z,96153
2022-08-28T08:50:42.773Z,96153
2022-08-28T08:51:42.774Z,96155
2022-08-28T08:52:42.787Z,96153
2022-08-28T08:53:42.784Z,96153
2022-08-28T08:54:42.794Z,96153
2022-08-28T08:55:42.790Z,96157
2022-08-28T08:56:42.783Z,96157
2022-08-28T08:57:42.793Z,96158
2022-08-28T08:58:42.797Z,96158
2022-08-28T08:59:42.799Z,96161
2022-08-28T09:00:42.797Z,96159
2022-08-28T09:01:42.828Z,96160
2022-08-28T09:02:43.841Z,96156
2022-08-28T09:03:43.507Z,96156
2022-08-28T09:04:42.798Z,96153
2022-08-28T09:05:42.818Z,96156
2022-08-28T09:06:42.815Z,96156
2022-08-28T09:07:42.902Z,96154
2022-08-28T09:08:42.825Z,96150
2022-08-28T09:09:42.828Z,96153
2022-08-28T09:10:42.816Z,96153
2022-08-28T09:11:42.804Z,96152
2022-08-28T09:12:42.934Z,96154
2022-08-28T09:13:42.826Z,96152
2022-08-28T09:14:42.825Z,96155
2022-08-28T09:15:46.327Z,96157
2022-08-28T09:16:42.826Z,96153
2022-08-28T09:17:42.899Z,96155
2022-08-28T09:18:42.843Z,96153
2022-08-28T09:19:42.837Z,96155
2022-08-28T09:20:42.847Z,96155
2022-08-28T09:21:42.959Z,96158
2022-08-28T09:22:43.008Z,96163
2022-08-28T09:23:42.844Z,96163
2022-08-28T09:25:42.855Z,96161
2022-08-28T09:27:42.914Z,96163
2022-08-28T09:28:42.847Z,96164
2022-08-28T09:29:42.865Z,96165
2022-08-28T09:30:42.926Z,96165
2022-08-28T09:31:42.878Z,96165
2022-08-28T09:32:42.956Z,96163
2022-08-28T09:33:42.882Z,96162
2022-08-28T09:34:42.893Z,96164
2022-08-28T09:35:42.879Z,96164
2022-08-28T09:36:42.877Z,96161
2022-08-28T09:37:42.875Z,96161
2022-08-28T09:38:42.897Z,96161
2022-08-28T09:39:45.632Z,96159
2022-08-28T09:40:42.927Z,96159
2022-08-28T09:41:42.894Z,96158
2022-08-28T09:42:42.930Z,96162
2022-08-28T09:43:42.881Z,96162
2022-08-28T09:44:42.928Z,96162
2022-08-28T09:45:42.901Z,96162
2022-08-28T09:47:46.347Z,96163
2022-08-28T09:48:42.924Z,96164
2022-08-28T09:50:42.931Z,96167
2022-08-28T09:51:42.922Z,96167
2022-08-28T09:52:42.964Z,96165
2022-08-28T09:53:42.909Z,96166
2022-08-28T09:54:42.924Z,96167
2022-08-28T09:56:42.934Z,96163
2022-08-28T09:57:42.938Z,96167
2022-08-28T09:58:42.930Z,96169
2022-08-28T09:59:42.946Z,96167
2022-08-28T10:00:42.976Z,96164
2022-08-28T10:01:44.777Z,96164
2022-08-28T10:03:42.951Z,96165
2022-08-28T10:04:43.000Z,96162
2022-08-28T10:05:42.972Z,96168
2022-08-28T10:06:43.501Z,96168
2022-08-28T10:07:42.950Z,96166
2022-08-28T10:08:42.999Z,96165
2022-08-28T10:09:46.839Z,96169
2022-08-28T10:11:44.373Z,96169
2022-08-28T10:12:43.003Z,96166
2022-08-28T10:13:43.000Z,96166
2022-08-28T10:14:42.971Z,96163
2022-08-28T10:15:43.564Z,96161
2022-08-28T10:16:42.997Z,96165
2022-08-28T10:17:42.984Z,96164
2022-08-28T10:18:42.992Z,96163
2022-08-28T10:19:42.983Z,96165
2022-08-28T10:20:43.002Z,96164
2022-08-28T10:21:42.996Z,96164
2022-08-28T10:22:43.015Z,96168
2022-08-28T10:23:42.996Z,96164
2022-08-28T10:24:43.002Z,96168
2022-08-28T10:25:43.028Z,96170
2022-08-28T10:26:43.013Z,96165
2022-08-28T10:27:43.025Z,96168
2022-08-28T10:28:43.011Z,96166
2022-08-28T10:29:43.022Z,96165
2022-08-28T10:30:43.087Z,96154
2022-08-28T10:31:43.036Z,96154
2022-08-28T10:32:43.023Z,96152
2022-08-28T10:33:43.052Z,96152
2022-08-28T10:34:43.047Z,96152
2022-08-28T10:35:43.062Z,96149
2022-08-28T10:36:43.063Z,96149
2022-08-28T10:37:43.053Z,96149
2022-08-28T10:38:43.049Z,96152
2022-08-28T10:39:43.046Z,96151
2022-08-28T10:40:43.054Z,96151
2022-08-28T10:42:43.054Z,96147
2022-08-28T10:43:43.063Z,96146
2022-08-28T10:44:43.052Z,96143
2022-08-28T10:45:43.061Z,96146
2022-08-28T10:46:43.142Z,96145
2022-08-28T10:47:43.061Z,96147
2022-08-28T10:48:43.073Z,96145
2022-08-28T10:49:43.063Z,96145
2022-08-28T10:50:43.088Z,96147
2022-08-28T10:51:44.406Z,96146
2022-08-28T10:52:43.085Z,96144
2022-08-28T10:54:43.099Z,96143
2022-08-28T10:55:43.098Z,96145
2022-08-28T10:56:43.100Z,96150
2022-08-28T10:57:43.094Z,96149
2022-08-28T10:58:43.112Z,96147
2022-08-28T10:59:43.152Z,96150
2022-08-28T11:00:43.091Z,96150
2022-08-28T11:03:43.101Z,96155
2022-08-28T11:04:43.121Z,96157
2022-08-28T11:05:52.515Z,96157
2022-08-28T11:06:43.122Z,96157
2022-08-28T11:07:43.128Z,96156
2022-08-28T11:08:43.137Z,96153
2022-08-28T11:09:43.116Z,96153
2022-08-28T11:10:43.139Z,96154
2022-08-28T11:11:43.137Z,96158
2022-08-28T11:12:43.130Z,96164
2022-08-28T11:13:43.142Z,96158
2022-08-28T11:14:48.387Z,96160
2022-08-28T11:15:43.153Z,96156
2022-08-28T11:17:43.157Z,96155
2022-08-28T11:18:43.140Z,96158
2022-08-28T11:19:44.951Z,96160
2022-08-28T11:20:43.151Z,96159
2022-08-28T11:21:43.161Z,96160
2022-08-28T11:22:43.159Z,96153
2022-08-28T11:23:43.160Z,96148
2022-08-28T11:24:43.833Z,96151
2022-08-28T11:25:43.174Z,96148
2022-08-28T11:26:43.165Z,96146
2022-08-28T11:27:43.171Z,96145
2022-08-28T11:28:43.171Z,96145
2022-08-28T11:29:43.162Z,96147
2022-08-28T11:31:43.193Z,96143
2022-08-28T11:32:46.960Z,96145
2022-08-28T11:34:43.184Z,96143
2022-08-28T11:35:43.199Z,96140
2022-08-28T11:36:43.208Z,96141
2022-08-28T11:37:43.192Z,96144
2022-08-28T11:38:43.198Z,96140
2022-08-28T11:39:43.223Z,96143
2022-08-28T11:40:43.209Z,96138
2022-08-28T11:41:43.197Z,96138
2022-08-28T11:42:43.195Z,96140
2022-08-28T11:43:43.220Z,96140
2022-08-28T11:44:43.236Z,96139
2022-08-28T11:45:46.711Z,96139
2022-08-28T11:46:43.300Z,96142
2022-08-28T11:47:43.237Z,96141
2022-08-28T11:48:43.250Z,96140
2022-08-28T11:49:43.256Z,96140
2022-08-28T11:50:43.227Z,96143
2022-08-28T11:51:43.250Z,96139
2022-08-28T11:52:43.236Z,96144
2022-08-28T11:53:43.257Z,96143
2022-08-28T11:54:43.271Z,96148
2022-08-28T11:56:43.246Z,96144
2022-08-28T11:57:43.257Z,96143
2022-08-28T11:58:43.354Z,96147
2022-08-28T11:59:43.262Z,96140
2022-08-28T12:00:43.243Z,96140
2022-08-28T12:01:43.268Z,96145
2022-08-28T12:02:43.342Z,96142
2022-08-28T12:03:43.288Z,96142
2022-08-28T12:05:44.322Z,96139
2022-08-28T12:06:43.289Z,96142
2022-08-28T12:07:43.291Z,96141
2022-08-28T12:08:43.299Z,96142
2022-08-28T12:09:43.287Z,96142
2022-08-28T12:11:43.290Z,96143
2022-08-28T12:12:43.283Z,96138
2022-08-28T12:13:43.291Z,96137
2022-08-28T12:14:43.294Z,96141
2022-08-28T12:15:43.378Z,96134
2022-08-28T12:16:43.295Z,96134
2022-08-28T12:17:43.301Z,96135
2022-08-28T12:18:43.303Z,96133
2022-08-28T12:19:56.073Z,96135
2022-08-28T12:21:43.304Z,96129
2022-08-28T12:22:43.294Z,96132
2022-08-28T12:23:43.326Z,96129
2022-08-28T12:24:43.322Z,96125
2022-08-28T12:25:43.325Z,96125
2022-08-28T12:26:43.327Z,96128
2022-08-28T12:27:43.340Z,96132
2022-08-28T12:28:43.317Z,96126
2022-08-28T12:29:43.359Z,96131
2022-08-28T12:30:43.520Z,96129
2022-08-28T12:31:43.357Z,96130
2022-08-28T12:32:43.350Z,96129
2022-08-28T12:33:43.359Z,96131
2022-08-28T12:34:43.352Z,96129
2022-08-28T12:35:43.992Z,96129
2022-08-28T12:36:43.355Z,96129
2022-08-28T12:37:52.030Z,96131
2022-08-28T12:38:43.356Z,96130
2022-08-28T12:39:43.368Z,96127
2022-08-28T12:40:43.470Z,96129
2022-08-28T12:41:43.357Z,96132
2022-08-28T12:42:43.372Z,96128
2022-08-28T12:43:46.753Z,96127
2022-08-28T12:45:43.404Z,96126
2022-08-28T12:46:43.380Z,96125
2022-08-28T12:47:43.382Z,96124
2022-08-28T12:48:43.385Z,96124
2022-08-28T12:49:43.378Z,96122
2022-08-28T12:50:43.384Z,96125
2022-08-28T12:51:43.436Z,96128
2022-08-28T12:52:43.405Z,96124
2022-08-28T12:53:43.400Z,96120
2022-08-28T12:54:43.409Z,96121
2022-08-28T12:55:43.441Z,96118
2022-08-28T12:56:43.436Z,96115
2022-08-28T12:57:43.397Z,96118
2022-08-28T12:58:43.393Z,96118
2022-08-28T13:00:43.414Z,96115
2022-08-28T13:01:43.498Z,96119
2022-08-28T13:02:46.433Z,96113
2022-08-28T13:03:43.435Z,96111
2022-08-28T13:04:43.430Z,96115
2022-08-28T13:05:43.417Z,96112
2022-08-28T13:06:43.433Z,96115
2022-08-28T13:07:43.427Z,96111
2022-08-28T13:10:43.443Z,96109
2022-08-28T13:12:54.693Z,96109
2022-08-28T13:13:43.443Z,96105
2022-08-28T13:14:43.469Z,96107
2022-08-28T13:15:43.483Z,96107
2022-08-28T13:16:43.516Z,96101
2022-08-28T13:17:43.458Z,96103
2022-08-28T13:18:43.455Z,96103
2022-08-28T13:19:43.508Z,96101
2022-08-28T13:20:43.463Z,96101
2022-08-28T13:21:43.485Z,96104
2022-08-28T13:22:45.875Z,96104
2022-08-28T13:23:43.472Z,96103
2022-08-28T13:24:43.515Z,96101
2022-08-28T13:25:43.487Z,96101
2022-08-28T13:27:43.498Z,96099
2022-08-28T13:28:43.520Z,96099
2022-08-28T13:29:43.496Z,96095
2022-08-28T13:30:44.881Z,96090
2022-08-28T13:31:43.516Z,96092
2022-08-28T13:32:43.507Z,96092
2022-08-28T13:33:43.504Z,96088
2022-08-28T13:34:47.630Z,96088
2022-08-28T13:35:43.522Z,96087
2022-08-28T13:36:43.517Z,96087
2022-08-28T13:37:43.530Z,96088
2022-08-28T13:38:43.523Z,96090
2022-08-28T13:39:43.555Z,96090
2022-08-28T13:40:57.607Z,96088
2022-08-28T13:41:43.528Z,96091
2022-08-28T13:42:43.522Z,96087
2022-08-28T13:43:43.521Z,96089
2022-08-28T13:44:43.523Z,96087
2022-08-28T13:45:44.094Z,96084
2022-08-28T13:46:43.529Z,96087
2022-08-28T13:47:43.530Z,96086
2022-08-28T13:48:43.540Z,96087
2022-08-28T13:50:44.766Z,96085
2022-08-28T13:51:43.610Z,96084
2022-08-28T13:52:43.555Z,96079
2022-08-28T13:53:43.550Z,96080
2022-08-28T13:54:45.293Z,96081
2022-08-28T13:55:43.557Z,96079
2022-08-28T13:56:43.564Z,96079
2022-08-28T13:58:43.575Z,96085
2022-08-28T13:59:43.599Z,96085
2022-08-28T14:00:43.654Z,96081
2022-08-28T14:01:43.621Z,96077
2022-08-28T14:02:43.616Z,96077
2022-08-28T14:03:43.590Z,96076
2022-08-28T14:04:43.604Z,96076
2022-08-28T14:07:44.972Z,96071
2022-08-28T14:08:43.628Z,96076
2022-08-28T14:09:43.632Z,96076
2022-08-28T14:10:43.616Z,96076
2022-08-28T14:11:43.605Z,96073
2022-08-28T14:12:43.610Z,96072
2022-08-28T14:13:47.461Z,96072
2022-08-28T14:14:43.623Z,96072
2022-08-28T14:17:43.622Z,96075
2022-08-28T14:18:43.619Z,96075
2022-08-28T14:19:43.640Z,96074
2022-08-28T14:20:43.645Z,96078
2022-08-28T14:21:43.626Z,96076
2022-08-28T14:23:43.646Z,96076
2022-08-28T14:25:43.657Z,96073
2022-08-28T14:26:43.645Z,96073
2022-08-28T14:27:43.634Z,96070
2022-08-28T14:28:43.658Z,96071
2022-08-28T14:30:43.670Z,96073
2022-08-28T14:31:43.709Z,96069
2022-08-28T14:32:43.652Z,96071
2022-08-28T14:33:45.705Z,96067
2022-08-28T14:34:43.654Z,96068
2022-08-28T14:35:43.673Z,96066
2022-08-28T14:36:43.660Z,96066
2022-08-28T14:37:43.662Z,96066
2022-08-28T14:38:43.669Z,96065
2022-08-28T14:39:43.683Z,96065
2022-08-28T14:40:43.755Z,96065
2022-08-28T14:41:43.678Z,96066
2022-08-28T14:42:43.670Z,96064
2022-08-28T14:43:43.695Z,96065
2022-08-28T14:44:43.699Z,96064
2022-08-28T14:45:43.792Z,96064
2022-08-28T14:46:43.701Z,96065
2022-08-28T14:47:43.717Z,96063
2022-08-28T14:48:43.686Z,96062
2022-08-28T14:49:43.799Z,96061
2022-08-28T14:50:43.715Z,96061
2022-08-28T14:51:43.719Z,96062
2022-08-28T14:52:43.729Z,96058
2022-08-28T14:53:43.704Z,96058
2022-08-28T14:54:43.758Z,96061
2022-08-28T14:55:43.827Z,96059
2022-08-28T14:56:43.726Z,96062
2022-08-28T14:58:43.725Z,96062
2022-08-28T14:59:43.729Z,96061
2022-08-28T15:01:43.739Z,96063
2022-08-28T15:02:43.735Z,96061
2022-08-28T15:03:43.816Z,96060
2022-08-28T15:04:43.755Z,96067
2022-08-28T15:05:43.761Z,96066
2022-08-28T15:06:43.746Z,96066
2022-08-28T15:07:43.747Z,96063
2022-08-28T15:08:43.742Z,96063
2022-08-28T15:09:43.749Z,96066
2022-08-28T15:10:43.753Z,96062
2022-08-28T15:11:43.760Z,96065
2022-08-28T15:12:43.756Z,96064
2022-08-28T15:14:47.054Z,96058
2022-08-28T15:15:43.783Z,96057
2022-08-28T15:16:43.826Z,96054
2022-08-28T15:17:43.788Z,96060
2022-08-28T15:18:43.797Z,96060